sensor_id;sensor_type;location;lat;lon;timestamp;pressure;altitude;pressure_sealevel;temperature;humidity
31771;BME280;18343;50.152;8.182;2023-04-30T00:00:19;97910.56;;;12.12;100.00
31771;BME280;18343;50.152;8.182;2023-04-30T00:03:05;97904.31;;;12.11;100.00
31771;BME280;18343;50.152;8.182;2023-04-30T00:05:50;97906.38;;;12.09;100.00
31771;BME280;18343;50.152;8.182;2023-04-30T00:08:34;97908.03;;;12.10;100.00
31771;BME280;18343;50.152;8.182;2023-04-30T00:11:19;97916.13;;;12.10;100.00
31771;BME280;18343;50.152;8.182;2023-04-30T00:14:04;97907.59;;;12.07;100.00
31771;BME280;18343;50.152;8.182;2023-04-30T00:16:49;97894.56;;;12.10;100.00
31771;BME280;18343;50.152;8.182;2023-04-30T00:19:35;97897.06;;;12.12;100.00
31771;BME280;18343;50.152;8.182;2023-04-30T00:22:20;97898.56;;;12.14;100.00
31771;BME280;18343;50.152;8.182;2023-04-30T00:25:04;97906.00;;;12.12;100.00
31771;BME280;18343;50.152;8.182;2023-04-30T00:27:49;97907.59;;;12.07;100.00
31771;BME280;18343;50.152;8.182;2023-04-30T00:30:34;97907.97;;;12.04;100.00
31771;BME280;18343;50.152;8.182;2023-04-30T00:33:19;97903.63;;;12.03;100.00
31771;BME280;18343;50.152;8.182;2023-04-30T00:36:05;97910.03;;;12.02;100.00
31771;BME280;18343;50.152;8.182;2023-04-30T00:38:50;97918.50;;;11.99;100.00
31771;BME280;18343;50.152;8.182;2023-04-30T00:41:35;97908.75;;;11.98;100.00
31771;BME280;18343;50.152;8.182;2023-04-30T00:44:19;97922.22;;;11.98;100.00
31771;BME280;18343;50.152;8.182;2023-04-30T00:47:04;97912.47;;;11.97;100.00
31771;BME280;18343;50.152;8.182;2023-04-30T00:49:49;97911.63;;;11.96;100.00
31771;BME280;18343;50.152;8.182;2023-04-30T00:52:35;97915.81;;;11.99;100.00
31771;BME280;18343;50.152;8.182;2023-04-30T00:55:20;97916.00;;;11.97;100.00
31771;BME280;18343;50.152;8.182;2023-04-30T00:58:05;97912.94;;;12.00;100.00
31771;BME280;18343;50.152;8.182;2023-04-30T01:00:52;97919.16;;;12.01;100.00
31771;BME280;18343;50.152;8.182;2023-04-30T01:03:37;97913.75;;;12.01;100.00
31771;BME280;18343;50.152;8.182;2023-04-30T01:06:23;97921.19;;;11.99;100.00
31771;BME280;18343;50.152;8.182;2023-04-30T01:09:10;97918.69;;;11.97;100.00
31771;BME280;18343;50.152;8.182;2023-04-30T01:12:04;97910.59;;;11.97;100.00
31771;BME280;18343;50.152;8.182;2023-04-30T01:14:59;97918.03;;;11.95;100.00
31771;BME280;18343;50.152;8.182;2023-04-30T01:17:52;97913.69;;;11.94;100.00
31771;BME280;18343;50.152;8.182;2023-04-30T01:20:43;97913.03;;;11.92;100.00
31771;BME280;18343;50.152;8.182;2023-04-30T01:27:29;97913.59;;;11.88;100.00
31771;BME280;18343;50.152;8.182;2023-04-30T01:30:17;97907.56;;;11.85;100.00
31771;BME280;18343;50.152;8.182;2023-04-30T01:33:03;97904.41;;;11.82;100.00
31771;BME280;18343;50.152;8.182;2023-04-30T01:36:20;97905.16;;;11.76;100.00
31771;BME280;18343;50.152;8.182;2023-04-30T01:39:25;97903.19;;;11.70;100.00
31771;BME280;18343;50.152;8.182;2023-04-30T01:42:17;97903.28;;;11.62;100.00
31771;BME280;18343;50.152;8.182;2023-04-30T01:45:20;97903.56;;;11.52;100.00
31771;BME280;18343;50.152;8.182;2023-04-30T01:48:16;97897.66;;;11.42;100.00
31771;BME280;18343;50.152;8.182;2023-04-30T01:51:10;97904.44;;;11.38;100.00
31771;BME280;18343;50.152;8.182;2023-04-30T01:54:02;97905.81;;;11.34;100.00
31771;BME280;18343;50.152;8.182;2023-04-30T01:56:57;97910.28;;;11.27;100.00
31771;BME280;18343;50.152;8.182;2023-04-30T01:59:45;97908.88;;;11.16;100.00
31771;BME280;18343;50.152;8.182;2023-04-30T02:02:31;97915.84;;;11.10;100.00
31771;BME280;18343;50.152;8.182;2023-04-30T02:05:16;97915.75;;;11.04;100.00
31771;BME280;18343;50.152;8.182;2023-04-30T02:08:00;97927.22;;;10.98;100.00
31771;BME280;18343;50.152;8.182;2023-04-30T02:10:45;97921.75;;;10.91;100.00
31771;BME280;18343;50.152;8.182;2023-04-30T02:13:30;97930.28;;;10.80;100.00
31771;BME280;18343;50.152;8.182;2023-04-30T02:16:14;97927.34;;;10.67;100.00
31771;BME280;18343;50.152;8.182;2023-04-30T02:19:01;97930.13;;;10.59;100.00
31771;BME280;18343;50.152;8.182;2023-04-30T02:21:45;97938.72;;;10.54;100.00
31771;BME280;18343;50.152;8.182;2023-04-30T02:24:30;97935.19;;;10.54;100.00
31771;BME280;18343;50.152;8.182;2023-04-30T02:27:15;97928.81;;;10.55;100.00
31771;BME280;18343;50.152;8.182;2023-04-30T02:30:00;97936.69;;;10.56;100.00
31771;BME280;18343;50.152;8.182;2023-04-30T02:32:44;97929.28;;;10.58;100.00
31771;BME280;18343;50.152;8.182;2023-04-30T02:35:30;97926.59;;;10.58;100.00
31771;BME280;18343;50.152;8.182;2023-04-30T02:38:15;97929.28;;;10.58;100.00
31771;BME280;18343;50.152;8.182;2023-04-30T02:40:59;97922.88;;;10.59;100.00
31771;BME280;18343;50.152;8.182;2023-04-30T02:43:44;97929.09;;;10.60;100.00
31771;BME280;18343;50.152;8.182;2023-04-30T02:46:29;97920.38;;;10.58;100.00
31771;BME280;18343;50.152;8.182;2023-04-30T02:49:14;97924.91;;;10.57;100.00
31771;BME280;18343;50.152;8.182;2023-04-30T02:51:59;97923.06;;;10.58;100.00
31771;BME280;18343;50.152;8.182;2023-04-30T02:54:44;97925.09;;;10.56;100.00
31771;BME280;18343;50.152;8.182;2023-04-30T02:57:29;97920.91;;;10.53;100.00
31771;BME280;18343;50.152;8.182;2023-04-30T03:00:13;97925.81;;;10.49;100.00
31771;BME280;18343;50.152;8.182;2023-04-30T03:02:58;97939.78;;;10.45;100.00
31771;BME280;18343;50.152;8.182;2023-04-30T03:05:43;97930.63;;;10.39;100.00
31771;BME280;18343;50.152;8.182;2023-04-30T03:08:28;97925.13;;;10.33;100.00
31771;BME280;18343;50.152;8.182;2023-04-30T03:11:13;97933.88;;;10.27;100.00
31771;BME280;18343;50.152;8.182;2023-04-30T03:13:58;97930.53;;;10.25;100.00
31771;BME280;18343;50.152;8.182;2023-04-30T03:16:43;97935.44;;;10.21;100.00
31771;BME280;18343;50.152;8.182;2023-04-30T03:19:27;97937.94;;;10.14;100.00
31771;BME280;18343;50.152;8.182;2023-04-30T03:22:12;97935.16;;;10.08;100.00
31771;BME280;18343;50.152;8.182;2023-04-30T03:24:58;97935.69;;;10.03;100.00
31771;BME280;18343;50.152;8.182;2023-04-30T03:27:42;97927.50;;;9.97;100.00
31771;BME280;18343;50.152;8.182;2023-04-30T03:30:27;97924.50;;;9.92;100.00
31771;BME280;18343;50.152;8.182;2023-04-30T03:33:12;97928.72;;;9.86;100.00
31771;BME280;18343;50.152;8.182;2023-04-30T03:35:56;97923.91;;;9.81;100.00
31771;BME280;18343;50.152;8.182;2023-04-30T03:38:41;97922.09;;;9.74;100.00
31771;BME280;18343;50.152;8.182;2023-04-30T03:41:27;97923.28;;;9.63;100.00
31771;BME280;18343;50.152;8.182;2023-04-30T03:44:12;97928.34;;;9.58;100.00
31771;BME280;18343;50.152;8.182;2023-04-30T03:46:56;97928.22;;;9.52;100.00
31771;BME280;18343;50.152;8.182;2023-04-30T03:49:40;97920.69;;;9.47;100.00
31771;BME280;18343;50.152;8.182;2023-04-30T03:52:25;97924.38;;;9.46;100.00
31771;BME280;18343;50.152;8.182;2023-04-30T03:55:10;97916.00;;;9.41;100.00
31771;BME280;18343;50.152;8.182;2023-04-30T03:57:56;97915.03;;;9.34;100.00
31771;BME280;18343;50.152;8.182;2023-04-30T04:00:41;97914.72;;;9.29;100.00
31771;BME280;18343;50.152;8.182;2023-04-30T04:03:25;97913.06;;;9.28;100.00
31771;BME280;18343;50.152;8.182;2023-04-30T04:06:10;97912.06;;;9.29;100.00
31771;BME280;18343;50.152;8.182;2023-04-30T04:08:55;97919.25;;;9.28;100.00
31771;BME280;18343;50.152;8.182;2023-04-30T04:11:39;97931.84;;;9.28;100.00
31771;BME280;18343;50.152;8.182;2023-04-30T04:14:25;97931.19;;;9.26;100.00
31771;BME280;18343;50.152;8.182;2023-04-30T04:17:09;97936.53;;;9.26;100.00
31771;BME280;18343;50.152;8.182;2023-04-30T04:19:54;97930.50;;;9.24;100.00
31771;BME280;18343;50.152;8.182;2023-04-30T04:22:38;97931.34;;;9.24;100.00
31771;BME280;18343;50.152;8.182;2023-04-30T04:25:23;97934.88;;;9.25;100.00
31771;BME280;18343;50.152;8.182;2023-04-30T04:28:08;97938.56;;;9.24;100.00
31771;BME280;18343;50.152;8.182;2023-04-30T04:30:54;97936.72;;;9.24;100.00
31771;BME280;18343;50.152;8.182;2023-04-30T04:33:39;97940.56;;;9.22;100.00
31771;BME280;18343;50.152;8.182;2023-04-30T04:36:23;97932.88;;;9.19;100.00
31771;BME280;18343;50.152;8.182;2023-04-30T04:39:08;97947.28;;;9.18;100.00
31771;BME280;18343;50.152;8.182;2023-04-30T04:41:52;97943.25;;;9.13;100.00
31771;BME280;18343;50.152;8.182;2023-04-30T04:44:37;97944.28;;;9.12;100.00
31771;BME280;18343;50.152;8.182;2023-04-30T04:47:23;97938.91;;;9.12;100.00
31771;BME280;18343;50.152;8.182;2023-04-30T04:50:09;97948.13;;;9.10;100.00
31771;BME280;18343;50.152;8.182;2023-04-30T04:52:53;97948.97;;;9.10;100.00
31771;BME280;18343;50.152;8.182;2023-04-30T04:55:38;97957.03;;;9.10;100.00
31771;BME280;18343;50.152;8.182;2023-04-30T04:58:23;97954.50;;;9.09;100.00
31771;BME280;18343;50.152;8.182;2023-04-30T05:01:08;97951.00;;;9.08;100.00
31771;BME280;18343;50.152;8.182;2023-04-30T05:03:53;97947.47;;;9.08;100.00
31771;BME280;18343;50.152;8.182;2023-04-30T05:06:38;97950.81;;;9.10;100.00
31771;BME280;18343;50.152;8.182;2023-04-30T05:09:23;97949.63;;;9.12;100.00
31771;BME280;18343;50.152;8.182;2023-04-30T05:12:07;97959.38;;;9.13;100.00
31771;BME280;18343;50.152;8.182;2023-04-30T05:14:52;97950.97;;;9.16;100.00
31771;BME280;18343;50.152;8.182;2023-04-30T05:17:37;97951.66;;;9.19;100.00
31771;BME280;18343;50.152;8.182;2023-04-30T05:20:23;97949.81;;;9.19;100.00
31771;BME280;18343;50.152;8.182;2023-04-30T05:23:07;97949.13;;;9.17;100.00
31771;BME280;18343;50.152;8.182;2023-04-30T05:25:52;97953.31;;;9.20;100.00
31771;BME280;18343;50.152;8.182;2023-04-30T05:28:37;97948.63;;;9.22;100.00
31771;BME280;18343;50.152;8.182;2023-04-30T05:31:22;97952.66;;;9.26;100.00
31771;BME280;18343;50.152;8.182;2023-04-30T05:34:06;97950.78;;;9.26;100.00
31771;BME280;18343;50.152;8.182;2023-04-30T05:36:53;97958.84;;;9.26;100.00
31771;BME280;18343;50.152;8.182;2023-04-30T05:39:37;97958.31;;;9.31;100.00
31771;BME280;18343;50.152;8.182;2023-04-30T05:42:22;97958.81;;;9.34;100.00
31771;BME280;18343;50.152;8.182;2023-04-30T05:45:08;97956.63;;;9.38;100.00
31771;BME280;18343;50.152;8.182;2023-04-30T05:47:52;97955.09;;;9.43;100.00
31771;BME280;18343;50.152;8.182;2023-04-30T05:50:37;97960.63;;;9.50;100.00
31771;BME280;18343;50.152;8.182;2023-04-30T05:53:23;97959.56;;;9.59;100.00
31771;BME280;18343;50.152;8.182;2023-04-30T05:56:08;97953.16;;;9.68;100.00
31771;BME280;18343;50.152;8.182;2023-04-30T05:58:53;97957.31;;;9.79;100.00
31771;BME280;18343;50.152;8.182;2023-04-30T06:01:37;97955.91;;;9.91;100.00
31771;BME280;18343;50.152;8.182;2023-04-30T06:04:22;97955.69;;;10.01;100.00
31771;BME280;18343;50.152;8.182;2023-04-30T06:07:06;97952.22;;;10.15;100.00
31771;BME280;18343;50.152;8.182;2023-04-30T06:09:52;97946.50;;;10.26;100.00
31771;BME280;18343;50.152;8.182;2023-04-30T06:12:37;97953.13;;;10.38;100.00
31771;BME280;18343;50.152;8.182;2023-04-30T06:15:22;97950.13;;;10.56;100.00
31771;BME280;18343;50.152;8.182;2023-04-30T06:18:06;97948.81;;;10.75;100.00
31771;BME280;18343;50.152;8.182;2023-04-30T06:20:51;97950.34;;;10.92;100.00
31771;BME280;18343;50.152;8.182;2023-04-30T06:23:36;97950.38;;;11.07;100.00
31771;BME280;18343;50.152;8.182;2023-04-30T06:26:22;97950.38;;;11.22;100.00
31771;BME280;18343;50.152;8.182;2023-04-30T06:29:07;97951.22;;;11.37;100.00
31771;BME280;18343;50.152;8.182;2023-04-30T06:31:51;97957.00;;;11.48;100.00
31771;BME280;18343;50.152;8.182;2023-04-30T06:34:37;97960.69;;;11.62;100.00
31771;BME280;18343;50.152;8.182;2023-04-30T06:37:22;97952.44;;;11.78;100.00
31771;BME280;18343;50.152;8.182;2023-04-30T06:40:07;97951.50;;;11.86;100.00
31771;BME280;18343;50.152;8.182;2023-04-30T06:42:53;97963.50;;;11.98;100.00
31771;BME280;18343;50.152;8.182;2023-04-30T06:45:38;97956.75;;;12.09;100.00
31771;BME280;18343;50.152;8.182;2023-04-30T06:48:23;97951.25;;;12.17;100.00
31771;BME280;18343;50.152;8.182;2023-04-30T06:51:08;97956.53;;;12.25;100.00
31771;BME280;18343;50.152;8.182;2023-04-30T06:53:52;97960.59;;;12.36;100.00
31771;BME280;18343;50.152;8.182;2023-04-30T06:56:37;97957.22;;;12.48;100.00
31771;BME280;18343;50.152;8.182;2023-04-30T06:59:23;97962.13;;;12.66;100.00
31771;BME280;18343;50.152;8.182;2023-04-30T07:02:07;97959.19;;;12.82;100.00
31771;BME280;18343;50.152;8.182;2023-04-30T07:04:52;97956.97;;;12.93;100.00
31771;BME280;18343;50.152;8.182;2023-04-30T07:07:36;97952.16;;;13.09;100.00
31771;BME280;18343;50.152;8.182;2023-04-30T07:10:21;97953.94;;;13.24;100.00
31771;BME280;18343;50.152;8.182;2023-04-30T07:13:06;97946.78;;;13.37;100.00
31771;BME280;18343;50.152;8.182;2023-04-30T07:15:52;97949.53;;;13.50;100.00
31771;BME280;18343;50.152;8.182;2023-04-30T07:18:37;97949.19;;;13.60;100.00
31771;BME280;18343;50.152;8.182;2023-04-30T07:21:22;97940.50;;;13.71;100.00
31771;BME280;18343;50.152;8.182;2023-04-30T07:24:06;97951.00;;;13.87;100.00
31771;BME280;18343;50.152;8.182;2023-04-30T07:26:51;97945.19;;;13.97;100.00
31771;BME280;18343;50.152;8.182;2023-04-30T07:29:36;97939.25;;;14.15;100.00
31771;BME280;18343;50.152;8.182;2023-04-30T07:32:22;97944.06;;;14.26;100.00
31771;BME280;18343;50.152;8.182;2023-04-30T07:35:07;97949.50;;;14.33;100.00
31771;BME280;18343;50.152;8.182;2023-04-30T07:37:52;97942.44;;;14.38;100.00
31771;BME280;18343;50.152;8.182;2023-04-30T07:40:37;97937.06;;;14.45;100.00
31771;BME280;18343;50.152;8.182;2023-04-30T07:43:22;97943.94;;;14.54;100.00
31771;BME280;18343;50.152;8.182;2023-04-30T07:46:06;97939.59;;;14.60;100.00
31771;BME280;18343;50.152;8.182;2023-04-30T07:48:53;97943.53;;;14.57;100.00
31771;BME280;18343;50.152;8.182;2023-04-30T07:51:37;97939.22;;;14.76;100.00
31771;BME280;18343;50.152;8.182;2023-04-30T07:54:22;97934.59;;;14.83;100.00
31771;BME280;18343;50.152;8.182;2023-04-30T07:57:07;97934.00;;;14.87;100.00
31771;BME280;18343;50.152;8.182;2023-04-30T07:59:52;97935.47;;;14.97;100.00
31771;BME280;18343;50.152;8.182;2023-04-30T08:02:37;97931.28;;;15.14;100.00
31771;BME280;18343;50.152;8.182;2023-04-30T08:05:23;97932.13;;;15.14;100.00
31771;BME280;18343;50.152;8.182;2023-04-30T08:08:07;97924.81;;;15.15;100.00
31771;BME280;18343;50.152;8.182;2023-04-30T08:10:52;97936.06;;;15.25;100.00
31771;BME280;18343;50.152;8.182;2023-04-30T08:13:37;97937.72;;;15.33;100.00
31771;BME280;18343;50.152;8.182;2023-04-30T08:16:21;97931.03;;;15.48;100.00
31771;BME280;18343;50.152;8.182;2023-04-30T08:19:06;97941.66;;;15.63;100.00
31771;BME280;18343;50.152;8.182;2023-04-30T08:21:53;97935.38;;;15.76;100.00
31771;BME280;18343;50.152;8.182;2023-04-30T08:24:38;97932.81;;;15.87;99.78
31771;BME280;18343;50.152;8.182;2023-04-30T08:27:23;97926.31;;;16.02;98.87
31771;BME280;18343;50.152;8.182;2023-04-30T08:30:09;97927.53;;;16.06;97.38
31771;BME280;18343;50.152;8.182;2023-04-30T08:32:54;97923.97;;;16.12;95.44
31771;BME280;18343;50.152;8.182;2023-04-30T08:35:39;97925.63;;;16.13;95.14
31771;BME280;18343;50.152;8.182;2023-04-30T08:38:27;97914.88;;;16.31;94.22
31771;BME280;18343;50.152;8.182;2023-04-30T08:41:13;97922.59;;;16.34;91.36
31771;BME280;18343;50.152;8.182;2023-04-30T08:44:01;97923.34;;;16.48;92.25
31771;BME280;18343;50.152;8.182;2023-04-30T08:46:46;97922.88;;;16.57;92.18
31771;BME280;18343;50.152;8.182;2023-04-30T08:49:31;97927.88;;;16.61;89.03
31771;BME280;18343;50.152;8.182;2023-04-30T08:52:16;97927.25;;;16.58;87.15
31771;BME280;18343;50.152;8.182;2023-04-30T08:55:07;97926.34;;;16.71;87.01
31771;BME280;18343;50.152;8.182;2023-04-30T08:57:52;97927.47;;;16.64;84.28
31771;BME280;18343;50.152;8.182;2023-04-30T09:00:38;97930.06;;;16.77;84.23
31771;BME280;18343;50.152;8.182;2023-04-30T09:03:23;97926.09;;;16.79;79.45
31771;BME280;18343;50.152;8.182;2023-04-30T09:06:08;97931.66;;;16.91;81.66
31771;BME280;18343;50.152;8.182;2023-04-30T09:08:52;97935.47;;;17.08;81.23
31771;BME280;18343;50.152;8.182;2023-04-30T09:11:39;97926.00;;;17.17;80.11
31771;BME280;18343;50.152;8.182;2023-04-30T09:14:24;97924.31;;;17.16;79.35
31771;BME280;18343;50.152;8.182;2023-04-30T09:17:09;97932.34;;;17.30;78.60
31771;BME280;18343;50.152;8.182;2023-04-30T09:19:53;97928.53;;;17.37;75.62
31771;BME280;18343;50.152;8.182;2023-04-30T09:22:41;97920.31;;;17.44;75.65
31771;BME280;18343;50.152;8.182;2023-04-30T09:25:37;97921.53;;;17.48;76.18
31771;BME280;18343;50.152;8.182;2023-04-30T09:28:24;97924.59;;;17.51;74.00
31771;BME280;18343;50.152;8.182;2023-04-30T09:31:19;97919.22;;;17.70;73.55
31771;BME280;18343;50.152;8.182;2023-04-30T09:34:04;97915.72;;;17.81;71.96
31771;BME280;18343;50.152;8.182;2023-04-30T09:36:53;97909.53;;;17.92;71.90
31771;BME280;18343;50.152;8.182;2023-04-30T09:39:49;97916.25;;;17.89;70.64
31771;BME280;18343;50.152;8.182;2023-04-30T09:42:34;97905.69;;;17.81;68.94
31771;BME280;18343;50.152;8.182;2023-04-30T09:45:24;97909.53;;;17.92;67.49
31771;BME280;18343;50.152;8.182;2023-04-30T09:48:10;97914.53;;;17.95;68.32
31771;BME280;18343;50.152;8.182;2023-04-30T09:50:55;97903.66;;;17.95;65.73
31771;BME280;18343;50.152;8.182;2023-04-30T09:53:42;97905.69;;;18.00;64.74
31771;BME280;18343;50.152;8.182;2023-04-30T09:56:26;97899.03;;;17.96;64.07
31771;BME280;18343;50.152;8.182;2023-04-30T09:59:12;97903.47;;;18.08;63.78
31771;BME280;18343;50.152;8.182;2023-04-30T10:02:02;97904.88;;;18.29;64.12
31771;BME280;18343;50.152;8.182;2023-04-30T10:04:52;97906.19;;;18.38;62.75
31771;BME280;18343;50.152;8.182;2023-04-30T10:07:38;97898.03;;;18.38;61.70
31771;BME280;18343;50.152;8.182;2023-04-30T10:10:25;97892.22;;;18.35;61.28
31771;BME280;18343;50.152;8.182;2023-04-30T10:13:18;97904.97;;;18.22;59.17
31771;BME280;18343;50.152;8.182;2023-04-30T10:16:10;97901.59;;;17.90;57.71
31771;BME280;18343;50.152;8.182;2023-04-30T10:19:02;97897.25;;;17.71;57.56
31771;BME280;18343;50.152;8.182;2023-04-30T10:21:49;97893.41;;;17.54;57.49
31771;BME280;18343;50.152;8.182;2023-04-30T10:24:35;97884.03;;;17.32;55.85
31771;BME280;18343;50.152;8.182;2023-04-30T10:27:20;97879.81;;;17.36;56.98
31771;BME280;18343;50.152;8.182;2023-04-30T10:30:07;97876.56;;;17.45;57.54
31771;BME280;18343;50.152;8.182;2023-04-30T10:33:00;97880.63;;;17.54;57.58
31771;BME280;18343;50.152;8.182;2023-04-30T10:35:56;97876.03;;;17.55;56.87
31771;BME280;18343;50.152;8.182;2023-04-30T10:38:42;97872.63;;;17.59;56.13
31771;BME280;18343;50.152;8.182;2023-04-30T10:41:28;97871.97;;;17.64;56.01
31771;BME280;18343;50.152;8.182;2023-04-30T10:44:12;97872.38;;;17.68;55.95
31771;BME280;18343;50.152;8.182;2023-04-30T10:47:01;97862.56;;;17.67;55.42
31771;BME280;18343;50.152;8.182;2023-04-30T10:49:48;97862.59;;;17.60;55.54
31771;BME280;18343;50.152;8.182;2023-04-30T10:52:37;97860.44;;;17.69;55.58
31771;BME280;18343;50.152;8.182;2023-04-30T10:55:22;97855.13;;;17.92;55.86
31771;BME280;18343;50.152;8.182;2023-04-30T10:58:23;97859.66;;;17.98;55.20
31771;BME280;18343;50.152;8.182;2023-04-30T11:01:11;97861.31;;;17.99;53.82
31771;BME280;18343;50.152;8.182;2023-04-30T11:04:05;97849.41;;;18.12;54.11
31771;BME280;18343;50.152;8.182;2023-04-30T11:07:11;97841.91;;;18.37;54.37
31771;BME280;18343;50.152;8.182;2023-04-30T11:09:57;97851.00;;;18.61;53.74
31771;BME280;18343;50.152;8.182;2023-04-30T11:12:47;97839.94;;;18.86;53.41
31771;BME280;18343;50.152;8.182;2023-04-30T11:15:44;97837.09;;;19.04;52.98
31771;BME280;18343;50.152;8.182;2023-04-30T11:18:29;97838.03;;;19.10;50.63
31771;BME280;18343;50.152;8.182;2023-04-30T11:21:14;97833.03;;;19.18;51.21
31771;BME280;18343;50.152;8.182;2023-04-30T11:24:02;97822.75;;;19.09;49.74
31771;BME280;18343;50.152;8.182;2023-04-30T11:27:04;97825.59;;;19.14;49.99
31771;BME280;18343;50.152;8.182;2023-04-30T11:29:50;97822.72;;;19.20;47.90
31771;BME280;18343;50.152;8.182;2023-04-30T11:32:37;97823.06;;;19.36;48.26
31771;BME280;18343;50.152;8.182;2023-04-30T11:35:24;97820.31;;;19.47;47.79
31771;BME280;18343;50.152;8.182;2023-04-30T11:38:09;97822.34;;;19.52;47.06
31771;BME280;18343;50.152;8.182;2023-04-30T11:40:56;97826.84;;;19.58;46.58
31771;BME280;18343;50.152;8.182;2023-04-30T11:43:43;97826.25;;;19.68;47.17
31771;BME280;18343;50.152;8.182;2023-04-30T11:46:45;97806.91;;;19.69;46.49
31771;BME280;18343;50.152;8.182;2023-04-30T11:49:31;97812.41;;;19.86;46.00
31771;BME280;18343;50.152;8.182;2023-04-30T11:52:20;97806.81;;;19.92;45.41
31771;BME280;18343;50.152;8.182;2023-04-30T11:55:08;97808.53;;;20.10;46.12
31771;BME280;18343;50.152;8.182;2023-04-30T11:57:57;97805.16;;;20.20;45.40
31771;BME280;18343;50.152;8.182;2023-04-30T12:00:49;97803.25;;;20.20;44.26
31771;BME280;18343;50.152;8.182;2023-04-30T12:03:43;97800.47;;;20.04;43.66
31771;BME280;18343;50.152;8.182;2023-04-30T12:06:29;97799.13;;;20.18;43.56
31771;BME280;18343;50.152;8.182;2023-04-30T12:09:14;97792.50;;;20.31;43.87
31771;BME280;18343;50.152;8.182;2023-04-30T12:11:59;97788.09;;;20.41;44.00
31771;BME280;18343;50.152;8.182;2023-04-30T12:14:43;97792.22;;;20.60;44.09
31771;BME280;18343;50.152;8.182;2023-04-30T12:17:34;97794.72;;;20.79;43.92
31771;BME280;18343;50.152;8.182;2023-04-30T12:20:20;97790.56;;;20.93;44.38
31771;BME280;18343;50.152;8.182;2023-04-30T12:23:08;97797.47;;;21.17;43.78
31771;BME280;18343;50.152;8.182;2023-04-30T12:25:52;97799.81;;;21.25;42.65
31771;BME280;18343;50.152;8.182;2023-04-30T12:28:37;97806.25;;;21.19;42.08
31771;BME280;18343;50.152;8.182;2023-04-30T12:31:24;97806.09;;;21.09;41.13
31771;BME280;18343;50.152;8.182;2023-04-30T12:34:13;97796.84;;;20.93;40.99
31771;BME280;18343;50.152;8.182;2023-04-30T12:36:58;97784.69;;;20.68;39.88
31771;BME280;18343;50.152;8.182;2023-04-30T12:39:43;97786.28;;;20.64;40.50
31771;BME280;18343;50.152;8.182;2023-04-30T12:42:38;97797.47;;;20.79;41.14
31771;BME280;18343;50.152;8.182;2023-04-30T12:45:48;97784.69;;;21.01;41.62
31771;BME280;18343;50.152;8.182;2023-04-30T12:48:43;97784.44;;;20.86;41.28
31771;BME280;18343;50.152;8.182;2023-04-30T12:51:29;97778.50;;;20.72;40.72
31771;BME280;18343;50.152;8.182;2023-04-30T12:54:25;97775.09;;;20.48;41.16
31771;BME280;18343;50.152;8.182;2023-04-30T12:57:31;97780.94;;;20.23;40.90
31771;BME280;18343;50.152;8.182;2023-04-30T13:00:16;97773.66;;;20.01;41.05
31771;BME280;18343;50.152;8.182;2023-04-30T13:03:00;97772.06;;;19.88;41.01
31771;BME280;18343;50.152;8.182;2023-04-30T13:05:48;97770.94;;;19.72;40.95
31771;BME280;18343;50.152;8.182;2023-04-30T13:08:34;97760.84;;;19.73;41.50
31771;BME280;18343;50.152;8.182;2023-04-30T13:11:19;97754.56;;;19.72;41.65
31771;BME280;18343;50.152;8.182;2023-04-30T13:14:04;97765.63;;;19.66;40.75
31771;BME280;18343;50.152;8.182;2023-04-30T13:16:49;97766.47;;;19.43;40.51
31771;BME280;18343;50.152;8.182;2023-04-30T13:19:33;97751.44;;;19.52;40.36
31771;BME280;18343;50.152;8.182;2023-04-30T13:22:19;97756.03;;;19.63;41.11
31771;BME280;18343;50.152;8.182;2023-04-30T13:25:07;97749.16;;;19.89;41.58
31771;BME280;18343;50.152;8.182;2023-04-30T13:27:52;97745.63;;;20.05;42.24
31771;BME280;18343;50.152;8.182;2023-04-30T13:30:36;97745.03;;;20.03;41.31
31771;BME280;18343;50.152;8.182;2023-04-30T13:33:24;97743.28;;;19.97;41.06
31771;BME280;18343;50.152;8.182;2023-04-30T13:36:11;97734.81;;;19.82;40.87
31771;BME280;18343;50.152;8.182;2023-04-30T13:38:56;97738.53;;;19.76;40.70
31771;BME280;18343;50.152;8.182;2023-04-30T13:41:44;97732.38;;;19.97;41.30
31771;BME280;18343;50.152;8.182;2023-04-30T13:44:29;97733.16;;;20.26;41.82
31771;BME280;18343;50.152;8.182;2023-04-30T13:47:13;97730.06;;;20.51;41.15
31771;BME280;18343;50.152;8.182;2023-04-30T13:49:59;97721.44;;;20.59;40.96
31771;BME280;18343;50.152;8.182;2023-04-30T13:52:43;97722.84;;;20.61;40.70
31771;BME280;18343;50.152;8.182;2023-04-30T13:55:28;97729.97;;;20.46;40.20
31771;BME280;18343;50.152;8.182;2023-04-30T13:58:14;97720.84;;;20.23;40.16
31771;BME280;18343;50.152;8.182;2023-04-30T14:01:02;97723.97;;;20.15;39.94
31771;BME280;18343;50.152;8.182;2023-04-30T14:03:48;97717.53;;;20.21;40.08
31771;BME280;18343;50.152;8.182;2023-04-30T14:06:33;97718.84;;;20.36;40.05
31771;BME280;18343;50.152;8.182;2023-04-30T14:09:18;97707.34;;;20.34;39.81
31771;BME280;18343;50.152;8.182;2023-04-30T14:12:03;97708.06;;;20.29;39.68
31771;BME280;18343;50.152;8.182;2023-04-30T14:14:49;97707.09;;;20.18;39.90
31771;BME280;18343;50.152;8.182;2023-04-30T14:17:33;97700.72;;;20.13;39.64
31771;BME280;18343;50.152;8.182;2023-04-30T14:20:19;97707.94;;;20.19;39.47
31771;BME280;18343;50.152;8.182;2023-04-30T14:23:04;97703.09;;;20.26;40.13
31771;BME280;18343;50.152;8.182;2023-04-30T14:25:49;97701.16;;;20.21;39.74
31771;BME280;18343;50.152;8.182;2023-04-30T14:28:33;97699.97;;;20.17;39.73
31771;BME280;18343;50.152;8.182;2023-04-30T14:31:19;97699.47;;;20.20;39.75
31771;BME280;18343;50.152;8.182;2023-04-30T14:34:04;97691.66;;;20.41;39.76
31771;BME280;18343;50.152;8.182;2023-04-30T14:36:50;97688.66;;;20.81;40.91
31771;BME280;18343;50.152;8.182;2023-04-30T14:39:35;97685.78;;;21.09;39.54